Time;durP1;ratioP1;P1;durP2;ratioP2;P2;SDS_P1;SDS_P2;PMS_P1;PMS_P2;Temp;Humidity;BMP_temperature;BMP_pressure;BME280_temperature;BME280_humidity;BME280_pressure;Samples;Min_cycle;Max_cycle;Signal;HPM_P1;HPM_P2
2021/10/14 00:01:08;;;;;;;16.08;6.65;;;;;;;11.70;100.00;102498.44;5094265;28;20373;-53
2021/10/14 00:03:33;;;;;;;;;;;;;;;11.71;100.00;102500.13;5093567;28;20039;-56
2021/10/14 00:05:58;;;;;;;15.57;6.47;;;;;;;11.67;100.00;102499.63;5093077;28;19908;-53
2021/10/14 00:08:24;;;;;;;16.55;6.93;;;;;;;11.70;100.00;102507.34;5093922;28;20038;-53
2021/10/14 00:10:49;;;;;;;16.67;7.03;;;;;;;11.74;100.00;102497.13;5094419;28;20339;-54
2021/10/14 00:13:15;;;;;;;23.67;8.77;;;;;;;11.75;100.00;102498.81;5092634;28;20036;-53
2021/10/14 00:15:41;;;;;;;15.20;7.03;;;;;;;11.67;100.00;102499.63;5093891;28;20039;-51
2021/10/14 00:18:06;;;;;;;23.88;8.82;;;;;;;11.76;100.00;102505.84;5093829;28;20106;-54
2021/10/14 00:20:32;;;;;;;22.23;8.63;;;;;;;11.71;100.00;102498.31;5094785;28;20036;-55
2021/10/14 00:22:58;;;;;;;22.52;8.63;;;;;;;11.73;100.00;102490.94;5094828;28;20032;-53
2021/10/14 00:25:23;;;;;;;22.02;8.35;;;;;;;11.73;100.00;102496.31;5094498;28;20062;-54
2021/10/14 00:27:49;;;;;;;19.80;8.70;;;;;;;11.72;100.00;102497.31;5093768;28;20028;-55
2021/10/14 00:30:15;;;;;;;37.65;10.30;;;;;;;11.78;100.00;102498.50;5075578;28;20454;-54
2021/10/14 00:32:41;;;;;;;19.48;9.32;;;;;;;11.76;100.00;102500.47;5093678;28;20046;-51
2021/10/14 00:35:07;;;;;;;21.50;9.50;;;;;;;11.75;100.00;102486.25;5093663;28;20035;-54
2021/10/14 00:37:32;;;;;;;19.30;9.48;;;;;;;11.68;100.00;102487.06;5094465;28;20044;-51
2021/10/14 00:39:58;;;;;;;23.63;10.60;;;;;;;11.57;100.00;102490.88;5075154;28;20483;-54
2021/10/14 00:42:23;;;;;;;26.27;10.63;;;;;;;11.59;100.00;102484.38;5094265;28;20268;-52
2021/10/14 00:44:52;;;;;;;31.63;10.43;;;;;;;11.62;100.00;102481.34;5092646;28;20766;-53
2021/10/14 00:47:19;;;;;;;27.50;11.77;;;;;;;11.70;100.00;102468.97;5091854;28;20070;-54
2021/10/14 00:49:45;;;;;;;21.47;10.77;;;;;;;11.66;100.00;102467.63;5093076;28;20253;-53
2021/10/14 00:52:12;;;;;;;25.08;11.18;;;;;;;11.69;100.00;102467.28;5093600;28;20421;-53
2021/10/14 00:54:39;;;;;;;27.13;10.95;;;;;;;11.66;100.00;102471.16;5092410;28;20500;-50
2021/10/14 00:57:05;;;;;;;26.47;12.33;;;;;;;11.75;100.00;102467.50;5093280;28;20042;-52
2021/10/14 00:59:31;;;;;;;25.17;12.57;;;;;;;11.80;100.00;102464.34;5092855;28;20276;-51
2021/10/14 01:01:56;;;;;;;27.48;13.75;;;;;;;11.80;100.00;102461.66;5093713;28;20039;-51
2021/10/14 01:04:22;;;;;;;26.50;12.10;;;;;;;11.80;100.00;102464.34;5092586;28;20040;-53
2021/10/14 01:06:48;;;;;;;27.55;12.00;;;;;;;11.78;100.00;102460.97;5092705;28;20043;-54
2021/10/14 01:09:13;;;;;;;28.50;13.23;;;;;;;11.69;100.00;102461.94;5093396;28;20507;-54
2021/10/14 01:11:40;;;;;;;33.05;14.25;;;;;;;11.71;100.00;102459.94;5092922;28;20023;-52
2021/10/14 01:14:06;;;;;;;;;;;;;;;11.84;100.00;102456.78;5093573;28;20397;-54
2021/10/14 01:16:38;;;;;;;34.77;13.90;;;;;;;11.82;100.00;102451.59;5093159;28;19908;-51
2021/10/14 01:19:03;;;;;;;35.77;15.67;;;;;;;11.79;100.00;102446.56;5091825;28;20187;-54
2021/10/14 01:21:29;;;;;;;32.90;15.77;;;;;;;11.83;100.00;102445.22;5093078;28;20252;-59
2021/10/14 01:23:54;;;;;;;33.95;16.38;;;;;;;11.79;100.00;102445.72;5093023;28;20089;-53
2021/10/14 01:26:20;;;;;;;34.25;13.93;;;;;;;11.81;100.00;102447.25;5091591;28;20101;-50
2021/10/14 01:28:45;;;;;;;33.37;16.87;;;;;;;11.87;100.00;102448.41;5092374;28;20036;-51
2021/10/14 01:31:11;;;;;;;30.93;15.47;;;;;;;11.93;100.00;102453.13;5091238;28;20436;-51
2021/10/14 01:33:36;;;;;;;31.97;15.73;;;;;;;11.93;100.00;102442.41;5092414;28;20050;-51
2021/10/14 01:36:03;;;;;;;42.38;17.38;;;;;;;11.92;100.00;102446.09;5091206;28;20446;-50
2021/10/14 01:38:28;;;;;;;41.33;16.55;;;;;;;11.97;100.00;102448.25;5091780;28;20036;-51
2021/10/14 01:40:54;;;;;;;38.58;16.77;;;;;;;11.97;100.00;102432.16;5092440;28;20136;-49
2021/10/14 01:43:20;;;;;;;35.30;16.77;;;;;;;11.93;100.00;102446.91;5092279;28;20475;-50
2021/10/14 01:45:45;;;;;;;46.42;18.77;;;;;;;11.93;100.00;102434.38;5091195;28;20068;-51
2021/10/14 01:48:11;;;;;;;37.60;16.83;;;;;;;11.90;100.00;102432.00;5092443;28;20067;-50
2021/10/14 01:50:36;;;;;;;38.47;18.05;;;;;;;12.01;100.00;102434.41;5092724;28;20040;-50
2021/10/14 01:53:02;;;;;;;42.67;18.77;;;;;;;11.90;100.00;102429.34;5074410;28;20051;-52
2021/10/14 01:55:27;;;;;;;41.13;17.77;;;;;;;11.91;100.00;102426.47;5091422;28;20373;-52
2021/10/14 01:57:53;;;;;;;34.60;16.50;;;;;;;12.05;100.00;102434.91;5092536;28;20041;-54
2021/10/14 02:00:18;;;;;;;34.90;17.30;;;;;;;11.99;100.00;102424.78;5092631;28;20244;-54
2021/10/14 02:02:44;;;;;;;36.87;17.60;;;;;;;11.99;100.00;102419.44;5092455;28;20043;-54
2021/10/14 02:05:09;;;;;;;40.43;18.27;;;;;;;11.96;100.00;102425.13;5090885;28;20112;-50
2021/10/14 02:07:35;;;;;;;39.17;16.17;;;;;;;12.01;100.00;102423.66;5091081;28;20029;-50
2021/10/14 02:10:00;;;;;;;34.72;16.30;;;;;;;11.95;100.00;102424.31;5092349;28;20032;-51
2021/10/14 02:12:26;;;;;;;40.60;17.10;;;;;;;12.02;100.00;102425.34;5092128;28;20385;-52
2021/10/14 02:14:52;;;;;;;34.20;15.38;;;;;;;12.01;100.00;102423.66;5074888;28;20783;-52
2021/10/14 02:17:18;;;;;;;37.70;16.50;;;;;;;11.86;100.00;102414.56;5094000;28;20044;-53
2021/10/14 02:19:43;;;;;;;34.22;16.52;;;;;;;11.85;100.00;102413.72;5096846;28;20080;-50
2021/10/14 02:22:09;;;;;;;35.40;17.20;;;;;;;11.84;100.00;102422.78;5095927;28;20426;-56
2021/10/14 02:24:34;;;;;;;38.35;16.58;;;;;;;11.95;100.00;102415.41;5096245;28;20488;-51
2021/10/14 02:27:00;;;;;;;35.63;16.95;;;;;;;11.89;100.00;102415.06;5096589;28;20101;-48
2021/10/14 02:29:25;;;;;;;44.77;18.73;;;;;;;11.90;100.00;102421.28;5095964;28;20082;-50
2021/10/14 02:31:51;;;;;;;34.23;17.40;;;;;;;11.79;100.00;102414.41;5095719;28;20794;-51
2021/10/14 02:34:16;;;;;;;40.42;17.42;;;;;;;11.83;100.00;102421.09;5095724;28;20070;-53
2021/10/14 02:36:42;;;;;;;40.57;17.90;;;;;;;11.82;100.00;102419.44;5094143;28;20157;-50
2021/10/14 02:39:07;;;;;;;46.70;17.90;;;;;;;11.83;100.00;102412.22;5096241;28;20044;-50
2021/10/14 02:41:33;;;;;;;39.77;17.50;;;;;;;11.79;100.00;102409.03;5095506;28;20062;-54
2021/10/14 02:43:59;;;;;;;51.63;19.27;;;;;;;11.85;100.00;102405.69;5094516;28;20024;-54
2021/10/14 02:46:24;;;;;;;35.42;17.48;;;;;;;11.82;100.00;102406.03;5096142;28;20040;-51
2021/10/14 02:48:51;;;;;;;38.10;19.03;;;;;;;11.81;100.00;102396.31;5094477;28;20124;-53
2021/10/14 02:51:16;;;;;;;;;;;;;;;11.89;100.00;102408.91;5097123;28;20028;-55
2021/10/14 02:53:42;;;;;;;44.63;18.67;;;;;;;11.92;100.00;102403.19;5096134;28;19911;-52
2021/10/14 02:56:07;;;;;;;34.45;18.17;;;;;;;11.85;100.00;102400.34;5095576;28;20532;-53
2021/10/14 02:58:33;;;;;;;42.60;19.83;;;;;;;11.94;100.00;102405.69;5094088;28;20378;-54
2021/10/14 03:01:00;;;;;;;36.17;18.73;;;;;;;11.91;100.00;102402.34;5093742;28;20036;-53
2021/10/14 03:03:26;;;;;;;38.20;19.93;;;;;;;11.93;100.00;102404.03;5095748;28;20047;-51
2021/10/14 03:05:51;;;;;;;41.55;18.95;;;;;;;11.94;100.00;102401.19;5095283;28;20324;-51
2021/10/14 03:08:17;;;;;;;40.03;18.60;;;;;;;11.96;100.00;102403.69;5095223;28;20441;-53
2021/10/14 03:10:42;;;;;;;34.97;18.30;;;;;;;11.98;100.00;102401.66;5095188;28;20276;-54
2021/10/14 03:13:08;;;;;;;41.22;21.45;;;;;;;11.97;100.00;102405.34;5095124;28;20503;-50
2021/10/14 03:15:33;;;;;;;42.23;19.60;;;;;;;12.02;100.00;102403.91;5094949;28;20035;-51
2021/10/14 03:17:59;;;;;;;41.03;20.20;;;;;;;12.02;100.00;102403.06;5094767;28;20288;-49
2021/10/14 03:20:24;;;;;;;42.90;20.40;;;;;;;12.02;100.00;102403.91;5094108;28;20261;-51
2021/10/14 03:22:50;;;;;;;48.50;20.63;;;;;;;12.00;100.00;102399.69;5095213;28;20107;-50
2021/10/14 03:25:15;;;;;;;44.28;22.20;;;;;;;12.02;100.00;102392.34;5094670;28;20098;-49
2021/10/14 03:27:41;;;;;;;38.27;19.53;;;;;;;11.94;100.00;102397.66;5076797;28;20361;-53
2021/10/14 03:30:07;;;;;;;50.00;21.33;;;;;;;11.97;100.00;102408.03;5093466;28;20115;-52
2021/10/14 03:32:32;;;;;;;48.58;22.17;;;;;;;12.04;100.00;102393.84;5093901;28;20458;-53
2021/10/14 03:34:58;;;;;;;43.83;21.88;;;;;;;12.00;100.00;102394.31;5093446;28;20043;-53
2021/10/14 03:37:23;;;;;;;39.17;21.53;;;;;;;12.06;100.00;102391.00;5095272;28;20048;-51
2021/10/14 03:39:49;;;;;;;47.80;22.63;;;;;;;12.02;100.00;102386.97;5093239;28;20032;-51
2021/10/14 03:42:16;;;;;;;42.67;22.53;;;;;;;11.97;100.00;102387.44;5094342;28;20340;-50
2021/10/14 03:44:41;;;;;;;45.60;23.63;;;;;;;12.05;100.00;102386.66;5094811;28;20056;-50
2021/10/14 03:47:07;;;;;;;42.23;20.67;;;;;;;12.03;100.00;102383.28;5094490;28;20652;-52
2021/10/14 03:49:32;;;;;;;43.77;22.73;;;;;;;12.01;100.00;102379.94;5093053;28;20280;-51
2021/10/14 03:51:58;;;;;;;39.30;21.23;;;;;;;12.05;100.00;102386.66;5094321;28;20257;-53
2021/10/14 03:54:23;;;;;;;48.10;23.17;;;;;;;12.10;100.00;102373.56;5076193;28;20032;-52
2021/10/14 03:56:49;;;;;;;46.67;22.93;;;;;;;12.07;100.00;102379.28;5093938;28;20077;-53
2021/10/14 03:59:14;;;;;;;40.77;22.67;;;;;;;12.05;100.00;102373.25;5094011;28;20024;-52
2021/10/14 04:01:40;;;;;;;43.93;21.23;;;;;;;12.01;100.00;102363.84;5093900;28;20044;-55
2021/10/14 04:04:05;;;;;;;50.20;22.27;;;;;;;12.05;100.00;102362.50;5094262;28;20253;-55
2021/10/14 04:06:30;;;;;;;41.70;22.83;;;;;;;12.03;100.00;102359.16;5093063;28;20104;-53
2021/10/14 04:08:56;;;;;;;44.00;22.93;;;;;;;12.04;100.00;102358.16;5093941;28;20435;-55
2021/10/14 04:11:21;;;;;;;44.33;24.00;;;;;;;12.09;100.00;102371.91;5094186;28;20415;-49
2021/10/14 04:13:47;;;;;;;46.47;23.40;;;;;;;12.06;100.00;102366.88;5093676;28;20035;-54
2021/10/14 04:16:12;;;;;;;49.53;22.98;;;;;;;12.13;100.00;102367.88;5092800;28;20036;-51
2021/10/14 04:18:38;;;;;;;43.10;23.10;;;;;;;12.20;100.00;102384.13;5092688;28;20028;-51
2021/10/14 04:21:04;;;;;;;46.17;23.60;;;;;;;12.13;100.00;102394.69;5094432;28;20264;-53
2021/10/14 04:23:30;;;;;;;;;;;;;;;12.19;100.00;102395.84;5094202;28;20052;-49
2021/10/14 04:25:55;;;;;;;49.03;24.50;;;;;;;12.20;100.00;102389.50;5093641;28;20290;-49
2021/10/14 04:28:21;;;;;;;50.57;24.37;;;;;;;12.14;100.00;102391.00;5092347;28;20039;-49
2021/10/14 04:30:48;;;;;;;53.17;24.60;;;;;;;12.17;100.00;102385.28;5075525;28;20276;-50
2021/10/14 04:33:14;;;;;;;50.50;24.30;;;;;;;12.18;100.00;102386.97;5093757;28;20107;-50
2021/10/14 04:35:39;;;;;;;44.95;24.75;;;;;;;12.24;100.00;102390.81;5093510;28;20343;-55
2021/10/14 04:38:05;;;;;;;44.78;23.92;;;;;;;12.17;100.00;102379.91;5092171;28;20036;-54
2021/10/14 04:40:32;;;;;;;54.63;24.30;;;;;;;12.19;100.00;102385.13;5093079;28;20404;-54
2021/10/14 04:42:57;;;;;;;46.63;24.30;;;;;;;12.21;100.00;102387.63;5091979;28;20050;-55
2021/10/14 04:45:23;;;;;;;51.85;24.38;;;;;;;12.25;100.00;102380.94;5093308;28;20661;-57
2021/10/14 04:47:49;;;;;;;40.25;22.80;;;;;;;12.17;100.00;102389.81;5093289;28;20038;-50
2021/10/14 04:50:14;;;;;;;46.70;23.97;;;;;;;12.22;100.00;102378.56;5093340;28;20034;-52
2021/10/14 04:52:40;;;;;;;54.30;25.25;;;;;;;12.16;100.00;102377.44;5093024;28;20419;-51
2021/10/14 04:55:06;;;;;;;52.60;24.98;;;;;;;12.14;100.00;102382.13;5093073;28;20063;-53
2021/10/14 04:57:32;;;;;;;;;;;;;;;12.15;100.00;102387.31;5093397;28;20024;-53
2021/10/14 04:59:57;;;;;;;55.43;24.23;;;;;;;12.00;100.00;102388.97;5092330;28;19937;-50
2021/10/14 05:02:23;;;;;;;59.28;28.23;;;;;;;12.01;100.00;102375.41;5093733;28;20310;-50
2021/10/14 05:04:48;;;;;;;69.77;30.63;;;;;;;12.02;100.00;102378.94;5093466;28;20468;-53
2021/10/14 05:07:14;;;;;;;66.40;33.40;;;;;;;11.94;100.00;102384.25;5093285;28;20036;-51
2021/10/14 05:09:39;;;;;;;69.10;32.57;;;;;;;11.95;100.00;102381.41;5091777;28;20022;-51
2021/10/14 05:12:05;;;;;;;67.43;33.10;;;;;;;12.01;100.00;102374.59;5091890;28;20036;-51
2021/10/14 05:14:31;;;;;;;82.43;37.42;;;;;;;11.96;100.00;102377.72;5092027;28;20030;-54
2021/10/14 05:16:56;;;;;;;76.32;35.55;;;;;;;11.91;100.00;102374.72;5091623;28;20035;-54
2021/10/14 05:19:22;;;;;;;83.47;36.70;;;;;;;11.92;100.00;102387.13;5091914;28;20353;-53
2021/10/14 05:21:47;;;;;;;77.67;34.83;;;;;;;11.86;100.00;102383.25;5093437;28;20097;-52
2021/10/14 05:24:13;;;;;;;79.70;36.47;;;;;;;11.89;100.00;102390.13;5093382;28;20036;-49
2021/10/14 05:26:38;;;;;;;84.23;38.03;;;;;;;11.93;100.00;102398.66;5093337;28;20064;-52
2021/10/14 05:29:04;;;;;;;74.10;37.70;;;;;;;12.17;100.00;102393.34;5091668;28;20047;-50
2021/10/14 05:31:29;;;;;;;84.93;36.67;;;;;;;12.23;100.00;102388.31;5091492;28;20423;-51
2021/10/14 05:33:55;;;;;;;86.00;39.47;;;;;;;12.33;100.00;102399.72;5092688;28;20514;-52
2021/10/14 05:36:21;;;;;;;84.05;37.50;;;;;;;12.05;100.00;102384.78;5092605;28;20767;-49
2021/10/14 05:38:47;;;;;;;89.93;38.90;;;;;;;11.98;100.00;102393.63;5092881;28;20036;-51
2021/10/14 05:41:13;;;;;;;87.95;39.70;;;;;;;12.00;100.00;102388.97;5092926;28;20031;-52
2021/10/14 05:43:39;;;;;;;97.05;41.60;;;;;;;11.93;100.00;102383.41;5093036;28;20040;-53
2021/10/14 05:46:04;;;;;;;91.82;40.08;;;;;;;11.98;100.00;102385.59;5092064;28;20511;-48
2021/10/14 05:48:30;;;;;;;94.03;38.90;;;;;;;11.98;100.00;102386.44;5091494;28;20032;-54
2021/10/14 05:50:56;;;;;;;101.57;43.33;;;;;;;12.01;100.00;102380.75;5094961;28;20260;-53
2021/10/14 05:53:21;;;;;;;100.00;41.28;;;;;;;11.99;100.00;102377.38;5096622;28;20515;-52
2021/10/14 05:55:48;;;;;;;100.47;44.53;;;;;;;12.03;100.00;102372.56;5095791;28;20384;-54
2021/10/14 05:58:14;;;;;;;107.47;43.73;;;;;;;12.06;100.00;102382.97;5095359;28;20043;-53
2021/10/14 06:00:40;;;;;;;93.45;42.15;;;;;;;12.06;100.00;102382.97;5095108;28;20358;-55
2021/10/14 06:03:05;;;;;;;101.18;42.78;;;;;;;12.04;100.00;102384.97;5097129;28;20066;-50
2021/10/14 06:05:31;;;;;;;101.47;44.75;;;;;;;12.06;100.00;102382.97;5096545;28;20038;-50
2021/10/14 06:07:56;;;;;;;108.30;44.13;;;;;;;12.04;100.00;102379.59;5096746;28;20496;-55
2021/10/14 06:10:22;;;;;;;109.03;45.27;;;;;;;12.10;100.00;102386.97;5096539;28;20032;-51
2021/10/14 06:12:47;;;;;;;106.22;45.28;;;;;;;12.08;100.00;102380.94;5094971;28;20288;-52
2021/10/14 06:15:13;;;;;;;109.87;45.67;;;;;;;12.15;100.00;102381.13;5096108;28;20034;-52
2021/10/14 06:17:39;;;;;;;99.82;43.08;;;;;;;12.15;100.00;102387.31;5095400;28;20457;-49
2021/10/14 06:20:05;;;;;;;105.13;42.53;;;;;;;12.13;100.00;102383.13;5096071;28;20359;-52
2021/10/14 06:22:30;;;;;;;87.13;40.85;;;;;;;12.82;100.00;102387.19;5096046;28;20032;-52
2021/10/14 06:24:56;;;;;;;100.73;42.37;;;;;;;13.18;100.00;102382.19;5095013;28;20342;-51
2021/10/14 06:27:21;;;;;;;108.60;42.38;;;;;;;13.15;100.00;102381.72;5096046;28;20316;-52
2021/10/14 06:29:47;;;;;;;90.50;40.35;;;;;;;13.16;100.00;102381.53;5094657;28;20032;-51
2021/10/14 06:32:13;;;;;;;104.45;44.85;;;;;;;13.27;100.00;102374.94;5096092;28;20453;-50
2021/10/14 06:34:38;;;;;;;100.53;44.23;;;;;;;13.37;100.00;102380.09;5096104;28;20036;-52
2021/10/14 06:37:04;;;;;;;92.97;39.37;;;;;;;13.39;100.00;102372.69;5096201;28;20277;-52
2021/10/14 06:39:29;;;;;;;92.47;38.97;;;;;;;13.29;100.00;102375.59;5095705;28;20032;-54
2021/10/14 06:41:55;;;;;;;95.23;41.87;;;;;;;13.33;100.00;102368.84;5096198;28;20107;-50
2021/10/14 06:44:21;;;;;;;102.97;44.08;;;;;;;13.29;100.00;102378.28;5094319;28;20020;-50
2021/10/14 06:46:47;;;;;;;;;;;;;;;13.33;100.00;102379.59;5095400;28;20044;-52
2021/10/14 06:49:13;;;;;;;96.10;41.30;;;;;;;13.41;100.00;102369.84;5095693;28;19912;-50
2021/10/14 06:51:39;;;;;;;102.57;43.50;;;;;;;13.40;100.00;102373.53;5095466;28;20038;-52
2021/10/14 06:54:04;;;;;;;82.03;38.35;;;;;;;13.52;100.00;102365.94;5096154;28;20036;-50
2021/10/14 06:56:29;;;;;;;97.30;41.43;;;;;;;13.58;100.00;102363.38;5095530;28;20051;-52
2021/10/14 06:58:55;;;;;;;98.57;40.13;;;;;;;13.51;100.00;102373.16;5077137;28;20315;-53
2021/10/14 07:01:20;;;;;;;94.75;43.38;;;;;;;13.50;100.00;102363.44;5093932;28;20040;-50
2021/10/14 07:03:46;;;;;;;87.20;40.13;;;;;;;13.52;100.00;102361.41;5095392;28;20028;-53
2021/10/14 07:06:12;;;;;;;88.50;40.13;;;;;;;13.53;100.00;102368.44;5077598;28;20040;-52
2021/10/14 07:08:37;;;;;;;82.45;39.00;;;;;;;13.51;100.00;102367.78;5095454;28;20086;-58
2021/10/14 07:11:03;;;;;;;90.07;41.47;;;;;;;13.54;100.00;102364.75;5094025;28;20032;-53
2021/10/14 07:13:28;;;;;;;102.00;41.50;;;;;;;13.48;100.00;102360.09;5093997;28;20417;-54
2021/10/14 07:15:54;;;;;;;86.50;38.28;;;;;;;13.56;100.00;102365.41;5094232;28;20051;-53
2021/10/14 07:18:20;;;;;;;82.03;37.23;;;;;;;13.53;100.00;102363.06;5094821;28;20040;-55
2021/10/14 07:20:45;;;;;;;88.47;40.92;;;;;;;13.50;100.00;102367.97;5095166;28;20613;-51
2021/10/14 07:23:13;;;;;;;89.05;38.90;;;;;;;13.60;100.00;102357.81;5095456;28;20072;-55
2021/10/14 07:25:40;;;;;;;88.93;38.40;;;;;;;13.67;100.00;102369.53;5095214;28;20020;-54
2021/10/14 07:28:06;;;;;;;85.63;38.37;;;;;;;13.64;100.00;102364.50;5094150;28;20752;-53
2021/10/14 07:30:34;;;;;;;81.25;36.60;;;;;;;13.71;100.00;102370.00;5094668;28;20280;-52
2021/10/14 07:33:03;;;;;;;78.43;36.30;;;;;;;13.67;100.00;102363.31;5095084;28;20040;-49
2021/10/14 07:35:34;;;;;;;80.90;37.00;;;;;;;13.77;100.00;102363.91;5094658;28;20306;-49
2021/10/14 07:38:00;;;;;;;74.90;36.13;;;;;;;13.82;100.00;102372.28;5094950;28;20284;-52
2021/10/14 07:40:27;;;;;;;82.87;36.30;;;;;;;13.82;100.00;102377.66;5093598;28;20355;-54
2021/10/14 07:42:52;;;;;;;76.20;36.60;;;;;;;13.75;100.00;102372.19;5092049;28;20343;-51
2021/10/14 07:45:18;;;;;;;83.93;34.60;;;;;;;13.80;100.00;102371.63;5094521;28;20119;-52
2021/10/14 07:47:44;;;;;;;76.40;35.10;;;;;;;13.86;100.00;102370.91;5094004;28;20532;-53
2021/10/14 07:50:09;;;;;;;82.80;35.17;;;;;;;13.77;100.00;102369.28;5094554;28;20524;-55
2021/10/14 07:52:35;;;;;;;73.97;35.13;;;;;;;13.78;100.00;102381.72;5094418;28;20389;-52
2021/10/14 07:55:01;;;;;;;83.15;36.38;;;;;;;13.89;100.00;102373.25;5094505;28;20050;-55
2021/10/14 07:57:26;;;;;;;79.72;35.45;;;;;;;13.75;100.00;102368.63;5094048;28;20043;-53
2021/10/14 07:59:52;;;;;;;86.75;37.15;;;;;;;14.04;100.00;102364.38;5093817;28;20039;-55
2021/10/14 08:02:17;;;;;;;82.00;35.37;;;;;;;14.07;100.00;102364.03;5094199;28;20036;-51
2021/10/14 08:04:44;;;;;;;73.63;36.33;;;;;;;13.96;100.00;102376.06;5092754;28;20248;-53
2021/10/14 08:07:10;;;;;;;80.10;34.80;;;;;;;13.97;100.00;102364.28;5094217;28;20124;-54
2021/10/14 08:09:35;;;;;;;71.67;33.17;;;;;;;13.98;100.00;102365.09;5092602;28;20343;-51
2021/10/14 08:12:01;;;;;;;60.33;31.35;;;;;;;13.92;100.00;102369.34;5092480;28;20032;-54
2021/10/14 08:14:26;;;;;;;72.82;32.47;;;;;;;13.89;100.00;102365.19;5074625;28;20136;-54
2021/10/14 08:16:52;;;;;;;69.63;32.78;;;;;;;14.07;100.00;102364.03;5093549;28;20036;-55
2021/10/14 08:19:17;;;;;;;67.27;32.83;;;;;;;13.97;100.00;102371.50;5093683;28;20040;-51
2021/10/14 08:21:43;;;;;;;70.80;32.97;;;;;;;14.07;100.00;102372.09;5094068;28;20469;-52
2021/10/14 08:24:09;;;;;;;76.75;32.83;;;;;;;14.10;100.00;102366.34;5093160;28;20036;-54
2021/10/14 08:26:34;;;;;;;73.13;33.78;;;;;;;14.21;100.00;102365.09;5092284;28;20024;-54
2021/10/14 08:29:00;;;;;;;67.18;33.30;;;;;;;13.18;100.00;102366.06;5093427;28;20043;-50
2021/10/14 08:31:26;;;;;;;69.00;32.77;;;;;;;13.02;100.00;102377.75;5093002;28;20118;-54
2021/10/14 08:33:51;;;;;;;73.90;32.97;;;;;;;13.02;100.00;102372.38;5092227;28;20272;-54
2021/10/14 08:36:18;;;;;;;69.75;31.90;;;;;;;13.08;100.00;102370.00;5093295;28;20043;-54
2021/10/14 08:38:44;;;;;;;61.63;32.67;;;;;;;13.20;100.00;102368.59;5093114;28;20105;-53
2021/10/14 08:41:10;;;;;;;61.63;31.33;;;;;;;13.23;100.00;102379.00;5093130;28;20355;-56
2021/10/14 08:43:39;;;;;;;66.03;31.10;;;;;;;13.36;100.00;102362.31;5093041;28;20227;-55
2021/10/14 08:46:05;;;;;;;62.33;30.53;;;;;;;13.44;100.00;102364.97;5091798;28;20047;-52
2021/10/14 08:48:30;;;;;;;63.38;30.35;;;;;;;13.48;100.00;102365.44;5093030;28;20316;-52
2021/10/14 08:50:56;;;;;;;56.08;28.17;;;;;;;13.40;100.00;102369.00;5093017;28;20079;-50
2021/10/14 08:53:22;;;;;;;60.15;29.33;;;;;;;13.39;100.00;102361.13;5093231;28;20089;-54
2021/10/14 08:55:47;;;;;;;57.87;29.17;;;;;;;13.36;100.00;102366.81;5093570;28;20109;-53
2021/10/14 08:58:14;;;;;;;71.00;28.77;;;;;;;13.46;100.00;102362.13;5093372;28;20047;-52
2021/10/14 09:00:42;;;;;;;;;;;;;;;13.41;100.00;102370.66;5092296;28;20325;-54
2021/10/14 09:03:26;;;;;;;58.77;27.73;;;;;;;13.49;100.00;102367.13;5093326;28;20315;-53
2021/10/14 09:05:52;;;;;;;63.13;28.73;;;;;;;13.49;100.00;102359.06;5092665;28;20260;-51
2021/10/14 09:08:47;;;;;;;62.78;29.90;;;;;;;13.48;100.00;102373.53;5091412;28;20284;-54
2021/10/14 09:11:27;;;;;;;57.93;29.63;;;;;;;13.52;100.00;102369.47;5074371;28;20139;-54
2021/10/14 09:13:58;;;;;;;67.13;30.53;;;;;;;13.45;100.00;102365.81;5093074;28;20610;-52
2021/10/14 09:16:33;;;;;;;54.67;28.07;;;;;;;13.39;100.00;102375.38;5093135;28;20647;-54
2021/10/14 09:19:12;;;;;;;58.43;30.57;;;;;;;13.50;100.00;102376.03;5074537;28;20373;-55
2021/10/14 09:21:40;;;;;;;62.90;30.97;;;;;;;13.54;100.00;102362.06;5092778;28;20323;-53
2021/10/14 09:24:24;;;;;;;60.93;30.23;;;;;;;13.51;100.00;102365.09;5091513;28;20285;-53
2021/10/14 09:26:50;;;;;;;61.50;30.20;;;;;;;13.46;100.00;102362.13;5091786;28;20314;-54
2021/10/14 09:29:16;;;;;;;61.60;32.00;;;;;;;13.47;100.00;102366.47;5092681;28;20733;-54
2021/10/14 09:32:05;;;;;;;60.00;31.45;;;;;;;13.55;100.00;102362.91;5092750;28;20070;-49
2021/10/14 09:34:42;;;;;;;63.40;31.53;;;;;;;13.65;100.00;102366.19;5091456;28;20107;-54
2021/10/14 09:37:16;;;;;;;59.97;30.33;;;;;;;13.68;100.00;102362.31;5090884;28;20625;-54
2021/10/14 09:40:04;;;;;;;59.27;31.10;;;;;;;13.71;100.00;102349.31;5092163;28;20046;-52
2021/10/14 09:42:58;;;;;;;56.30;30.27;;;;;;;13.63;100.00;102352.09;5092621;28;20272;-54
2021/10/14 09:45:26;;;;;;;63.90;30.40;;;;;;;13.61;100.00;102354.97;5074980;28;20044;-51
2021/10/14 09:48:08;;;;;;;56.37;30.30;;;;;;;13.62;100.00;102358.47;5090785;28;20276;-51
2021/10/14 09:50:36;;;;;;;64.53;31.13;;;;;;;13.59;100.00;102364.22;5092494;28;20261;-52
2021/10/14 09:53:05;;;;;;;61.27;31.93;;;;;;;13.55;100.00;102361.03;5091852;28;20737;-54
2021/10/14 09:55:31;;;;;;;67.67;34.50;;;;;;;13.56;100.00;102356.50;5092363;28;20287;-54
2021/10/14 09:57:57;;;;;;;71.90;33.08;;;;;;;13.62;100.00;102358.47;5090685;28;20282;-55
2021/10/14 10:00:23;;;;;;;67.10;31.58;;;;;;;13.63;100.00;102360.16;5091607;28;20055;-49
2021/10/14 10:02:51;;;;;;;;;;;;;;;13.77;100.00;102353.16;5092555;28;20032;-52
2021/10/14 10:05:17;;;;;;;65.70;33.23;;;;;;;13.85;100.00;102347.75;5091640;28;19912;-55
2021/10/14 10:07:46;;;;;;;59.67;32.65;;;;;;;13.96;100.00;102345.63;5074110;28;20276;-53
2021/10/14 10:10:15;;;;;;;59.77;32.13;;;;;;;13.97;100.00;102340.06;5092398;28;20036;-51
2021/10/14 10:12:42;;;;;;;60.90;32.60;;;;;;;14.10;100.00;102343.97;5092208;28;20304;-53
2021/10/14 10:15:08;;;;;;;65.37;32.40;;;;;;;14.07;100.00;102333.59;5089963;28;20311;-55
2021/10/14 10:17:42;;;;;;;53.42;30.35;;;;;;;14.15;100.00;102331.66;5091261;28;20698;-53
2021/10/14 10:20:10;;;;;;;62.70;32.90;;;;;;;14.40;100.00;102333.25;5090863;28;20212;-51
2021/10/14 10:22:35;;;;;;;56.23;30.40;;;;;;;14.41;100.00;102337.63;5092240;28;20264;-52
2021/10/14 10:25:25;;;;;;;52.50;28.53;;;;;;;14.43;100.00;102336.44;5091322;28;20329;-54
2021/10/14 10:27:52;;;;;;;49.07;26.43;;;;;;;14.41;100.00;102334.94;5091798;28;20036;-50
2021/10/14 10:30:32;;;;;;;48.83;28.70;;;;;;;14.59;100.00;102343.47;5092619;28;20363;-53
2021/10/14 10:32:58;;;;;;;46.07;26.90;;;;;;;14.79;100.00;102339.44;5091041;28;20397;-51
2021/10/14 10:35:38;;;;;;;46.08;26.25;;;;;;;14.97;100.00;102334.47;5091668;28;20328;-50
2021/10/14 10:38:13;;;;;;;46.83;25.43;;;;;;;15.14;100.00;102336.97;5093325;28;20155;-49
2021/10/14 10:40:40;;;;;;;49.13;26.50;;;;;;;15.54;100.00;102331.16;5095783;28;20728;-52
2021/10/14 10:43:26;;;;;;;45.17;24.42;;;;;;;16.02;100.00;102322.50;5095405;28;20257;-52
2021/10/14 10:46:03;;;;;;;40.57;23.00;;;;;;;17.04;100.00;102319.38;5093796;28;20527;-53
2021/10/14 10:48:39;;;;;;;40.50;22.40;;;;;;;17.82;100.00;102309.94;5095196;28;20064;-53
2021/10/14 10:51:07;;;;;;;31.60;18.83;;;;;;;17.58;100.00;102298.69;5094832;28;20111;-50
2021/10/14 10:53:41;;;;;;;31.43;18.97;;;;;;;17.20;100.00;102312.75;5094943;28;20020;-53
2021/10/14 10:56:26;;;;;;;33.67;20.80;;;;;;;16.83;100.00;102309.47;5094761;28;20059;-51
2021/10/14 10:58:52;;;;;;;26.57;17.67;;;;;;;17.55;100.00;102301.81;5093539;28;20032;-53
2021/10/14 11:01:19;;;;;;;29.95;18.65;;;;;;;17.79;100.00;102304.94;5094239;28;20099;-54
2021/10/14 11:03:53;;;;;;;29.37;19.13;;;;;;;17.37;100.00;102296.97;5094805;28;20533;-54